sensor_id;sensor_type;location;lat;lon;timestamp;P1;durP1;ratioP1;P2;durP2;ratioP2
64851;SDS011;56050;55.558;-4.644;2023-02-19T00:04:37;2.40;;;1.00;;
64851;SDS011;56050;55.558;-4.644;2023-02-19T00:07:02;2.10;;;0.95;;
64851;SDS011;56050;55.558;-4.644;2023-02-19T00:09:27;0.95;;;0.65;;
64851;SDS011;56050;55.558;-4.644;2023-02-19T00:11:53;0.55;;;0.52;;
64851;SDS011;56050;55.558;-4.644;2023-02-19T00:14:19;0.80;;;0.60;;
64851;SDS011;56050;55.558;-4.644;2023-02-19T00:16:45;0.77;;;0.28;;
64851;SDS011;56050;55.558;-4.644;2023-02-19T00:19:12;1.55;;;1.45;;
64851;SDS011;56050;55.558;-4.644;2023-02-19T00:21:40;0.95;;;0.35;;
64851;SDS011;56050;55.558;-4.644;2023-02-19T00:24:06;0.55;;;0.55;;
64851;SDS011;56050;55.558;-4.644;2023-02-19T00:26:34;0.73;;;0.38;;
64851;SDS011;56050;55.558;-4.644;2023-02-19T00:29:02;1.08;;;0.82;;
64851;SDS011;56050;55.558;-4.644;2023-02-19T00:31:28;2.40;;;0.57;;
64851;SDS011;56050;55.558;-4.644;2023-02-19T00:33:56;0.55;;;0.47;;
64851;SDS011;56050;55.558;-4.644;2023-02-19T00:36:26;1.80;;;0.38;;
64851;SDS011;56050;55.558;-4.644;2023-02-19T00:38:52;0.40;;;0.35;;
64851;SDS011;56050;55.558;-4.644;2023-02-19T00:41:18;1.40;;;0.38;;
64851;SDS011;56050;55.558;-4.644;2023-02-19T00:46:13;5.85;;;1.05;;
64851;SDS011;56050;55.558;-4.644;2023-02-19T00:48:39;0.35;;;0.32;;
64851;SDS011;56050;55.558;-4.644;2023-02-19T00:51:04;0.82;;;0.40;;
64851;SDS011;56050;55.558;-4.644;2023-02-19T00:53:30;2.70;;;0.50;;
64851;SDS011;56050;55.558;-4.644;2023-02-19T00:58:21;2.13;;;0.63;;
64851;SDS011;56050;55.558;-4.644;2023-02-19T01:00:46;2.38;;;0.45;;
64851;SDS011;56050;55.558;-4.644;2023-02-19T01:05:37;0.30;;;0.20;;
64851;SDS011;56050;55.558;-4.644;2023-02-19T01:08:02;1.15;;;0.77;;
64851;SDS011;56050;55.558;-4.644;2023-02-19T01:12:53;0.40;;;0.40;;
64851;SDS011;56050;55.558;-4.644;2023-02-19T01:15:18;1.20;;;0.43;;
64851;SDS011;56050;55.558;-4.644;2023-02-19T01:17:44;0.68;;;0.32;;
64851;SDS011;56050;55.558;-4.644;2023-02-19T01:22:35;0.55;;;0.38;;
64851;SDS011;56050;55.558;-4.644;2023-02-19T01:25:00;0.82;;;0.43;;
64851;SDS011;56050;55.558;-4.644;2023-02-19T01:29:52;0.77;;;0.77;;
64851;SDS011;56050;55.558;-4.644;2023-02-19T01:32:17;1.60;;;1.17;;
64851;SDS011;56050;55.558;-4.644;2023-02-19T01:37:08;0.97;;;0.40;;
64851;SDS011;56050;55.558;-4.644;2023-02-19T01:39:36;0.38;;;0.30;;
64851;SDS011;56050;55.558;-4.644;2023-02-19T01:42:04;0.90;;;0.88;;
64851;SDS011;56050;55.558;-4.644;2023-02-19T01:47:01;0.65;;;0.65;;
64851;SDS011;56050;55.558;-4.644;2023-02-19T01:52:04;0.68;;;0.40;;
64851;SDS011;56050;55.558;-4.644;2023-02-19T01:54:42;0.63;;;0.38;;
64851;SDS011;56050;55.558;-4.644;2023-02-19T01:57:11;0.65;;;0.35;;
64851;SDS011;56050;55.558;-4.644;2023-02-19T01:59:40;0.65;;;0.52;;
64851;SDS011;56050;55.558;-4.644;2023-02-19T02:02:07;1.20;;;0.77;;
64851;SDS011;56050;55.558;-4.644;2023-02-19T02:04:33;1.40;;;0.65;;
64851;SDS011;56050;55.558;-4.644;2023-02-19T02:06:59;0.75;;;0.43;;
64851;SDS011;56050;55.558;-4.644;2023-02-19T02:09:28;1.40;;;1.00;;
64851;SDS011;56050;55.558;-4.644;2023-02-19T02:12:13;0.63;;;0.63;;
64851;SDS011;56050;55.558;-4.644;2023-02-19T02:31:08;1.08;;;0.77;;
64851;SDS011;56050;55.558;-4.644;2023-02-19T02:33:43;0.95;;;0.57;;
64851;SDS011;56050;55.558;-4.644;2023-02-19T02:36:30;0.93;;;0.93;;
64851;SDS011;56050;55.558;-4.644;2023-02-19T02:38:59;1.42;;;0.28;;
64851;SDS011;56050;55.558;-4.644;2023-02-19T02:41:29;1.00;;;0.30;;
64851;SDS011;56050;55.558;-4.644;2023-02-19T02:43:56;1.27;;;0.55;;
64851;SDS011;56050;55.558;-4.644;2023-02-19T02:46:23;0.38;;;0.35;;
64851;SDS011;56050;55.558;-4.644;2023-02-19T02:48:59;1.50;;;0.98;;
64851;SDS011;56050;55.558;-4.644;2023-02-19T02:51:29;1.30;;;0.98;;
64851;SDS011;56050;55.558;-4.644;2023-02-19T02:54:06;1.63;;;0.60;;
64851;SDS011;56050;55.558;-4.644;2023-02-19T02:56:52;1.27;;;1.17;;
64851;SDS011;56050;55.558;-4.644;2023-02-19T02:59:24;1.70;;;1.60;;
64851;SDS011;56050;55.558;-4.644;2023-02-19T03:07:46;2.28;;;0.82;;
64851;SDS011;56050;55.558;-4.644;2023-02-19T03:10:15;2.70;;;0.50;;
64851;SDS011;56050;55.558;-4.644;2023-02-19T03:12:44;1.40;;;0.73;;
64851;SDS011;56050;55.558;-4.644;2023-02-19T03:15:32;0.73;;;0.25;;
64851;SDS011;56050;55.558;-4.644;2023-02-19T03:18:20;0.55;;;0.38;;
64851;SDS011;56050;55.558;-4.644;2023-02-19T03:21:06;1.05;;;0.68;;
64851;SDS011;56050;55.558;-4.644;2023-02-19T03:23:33;0.63;;;0.47;;
64851;SDS011;56050;55.558;-4.644;2023-02-19T03:26:19;1.95;;;0.63;;
64851;SDS011;56050;55.558;-4.644;2023-02-19T03:28:46;1.00;;;0.75;;
64851;SDS011;56050;55.558;-4.644;2023-02-19T03:31:33;1.08;;;0.57;;
64851;SDS011;56050;55.558;-4.644;2023-02-19T03:34:02;0.70;;;0.70;;
64851;SDS011;56050;55.558;-4.644;2023-02-19T03:36:34;0.88;;;0.85;;
64851;SDS011;56050;55.558;-4.644;2023-02-19T03:39:07;3.03;;;0.80;;
64851;SDS011;56050;55.558;-4.644;2023-02-19T04:00:04;2.65;;;0.40;;
64851;SDS011;56050;55.558;-4.644;2023-02-19T04:02:41;1.02;;;1.02;;
64851;SDS011;56050;55.558;-4.644;2023-02-19T04:05:13;5.07;;;0.90;;
64851;SDS011;56050;55.558;-4.644;2023-02-19T04:07:44;4.20;;;1.08;;
64851;SDS011;56050;55.558;-4.644;2023-02-19T04:10:12;1.30;;;1.17;;
64851;SDS011;56050;55.558;-4.644;2023-02-19T04:12:39;1.15;;;0.55;;
64851;SDS011;56050;55.558;-4.644;2023-02-19T04:15:12;4.03;;;0.85;;
64851;SDS011;56050;55.558;-4.644;2023-02-19T04:17:43;2.50;;;0.73;;
64851;SDS011;56050;55.558;-4.644;2023-02-19T04:20:11;1.08;;;0.60;;
64851;SDS011;56050;55.558;-4.644;2023-02-19T04:22:38;1.83;;;0.65;;
64851;SDS011;56050;55.558;-4.644;2023-02-19T04:25:05;3.97;;;0.68;;
64851;SDS011;56050;55.558;-4.644;2023-02-19T04:27:34;2.78;;;0.82;;
64851;SDS011;56050;55.558;-4.644;2023-02-19T04:30:02;2.05;;;1.25;;
64851;SDS011;56050;55.558;-4.644;2023-02-19T04:32:28;1.30;;;0.93;;
64851;SDS011;56050;55.558;-4.644;2023-02-19T04:34:54;2.17;;;0.52;;
64851;SDS011;56050;55.558;-4.644;2023-02-19T04:37:19;1.15;;;0.75;;
64851;SDS011;56050;55.558;-4.644;2023-02-19T04:39:45;2.08;;;1.27;;
64851;SDS011;56050;55.558;-4.644;2023-02-19T04:44:35;0.57;;;0.43;;
64851;SDS011;56050;55.558;-4.644;2023-02-19T04:47:01;3.38;;;0.75;;
64851;SDS011;56050;55.558;-4.644;2023-02-19T04:49:26;1.52;;;0.75;;
64851;SDS011;56050;55.558;-4.644;2023-02-19T04:51:52;0.85;;;0.70;;
64851;SDS011;56050;55.558;-4.644;2023-02-19T04:56:42;2.20;;;0.47;;
64851;SDS011;56050;55.558;-4.644;2023-02-19T04:59:08;2.17;;;0.75;;
64851;SDS011;56050;55.558;-4.644;2023-02-19T05:01:34;3.50;;;0.93;;
64851;SDS011;56050;55.558;-4.644;2023-02-19T05:03:59;3.35;;;0.85;;
64851;SDS011;56050;55.558;-4.644;2023-02-19T05:06:25;3.72;;;0.85;;
64851;SDS011;56050;55.558;-4.644;2023-02-19T05:08:51;2.03;;;1.10;;
64851;SDS011;56050;55.558;-4.644;2023-02-19T05:11:17;1.67;;;0.32;;
64851;SDS011;56050;55.558;-4.644;2023-02-19T05:16:11;1.90;;;1.00;;
64851;SDS011;56050;55.558;-4.644;2023-02-19T05:18:40;1.80;;;0.38;;
64851;SDS011;56050;55.558;-4.644;2023-02-19T05:21:07;1.83;;;0.52;;
64851;SDS011;56050;55.558;-4.644;2023-02-19T05:23:32;1.98;;;0.70;;
64851;SDS011;56050;55.558;-4.644;2023-02-19T05:25:58;0.65;;;0.35;;
64851;SDS011;56050;55.558;-4.644;2023-02-19T05:28:23;2.38;;;1.27;;
64851;SDS011;56050;55.558;-4.644;2023-02-19T05:30:55;3.65;;;0.77;;
64851;SDS011;56050;55.558;-4.644;2023-02-19T05:33:22;1.40;;;0.75;;
64851;SDS011;56050;55.558;-4.644;2023-02-19T05:35:50;2.63;;;0.47;;
64851;SDS011;56050;55.558;-4.644;2023-02-19T05:38:17;2.08;;;0.55;;
64851;SDS011;56050;55.558;-4.644;2023-02-19T05:40:43;4.88;;;0.88;;
64851;SDS011;56050;55.558;-4.644;2023-02-19T05:43:10;2.05;;;1.38;;
64851;SDS011;56050;55.558;-4.644;2023-02-19T05:45:36;1.80;;;0.65;;
64851;SDS011;56050;55.558;-4.644;2023-02-19T05:48:03;4.22;;;1.17;;
64851;SDS011;56050;55.558;-4.644;2023-02-19T05:50:30;4.43;;;0.45;;
64851;SDS011;56050;55.558;-4.644;2023-02-19T05:52:58;0.82;;;0.38;;
64851;SDS011;56050;55.558;-4.644;2023-02-19T05:55:25;3.40;;;0.43;;
64851;SDS011;56050;55.558;-4.644;2023-02-19T05:57:51;3.38;;;1.33;;
64851;SDS011;56050;55.558;-4.644;2023-02-19T06:02:43;2.42;;;0.73;;
64851;SDS011;56050;55.558;-4.644;2023-02-19T06:05:09;1.73;;;0.55;;
64851;SDS011;56050;55.558;-4.644;2023-02-19T06:07:35;5.45;;;1.25;;
64851;SDS011;56050;55.558;-4.644;2023-02-19T06:10:03;3.25;;;1.05;;
64851;SDS011;56050;55.558;-4.644;2023-02-19T06:12:30;4.13;;;0.73;;
64851;SDS011;56050;55.558;-4.644;2023-02-19T06:14:56;2.45;;;0.80;;
64851;SDS011;56050;55.558;-4.644;2023-02-19T06:17:21;6.25;;;1.00;;
64851;SDS011;56050;55.558;-4.644;2023-02-19T06:19:47;7.38;;;0.68;;
64851;SDS011;56050;55.558;-4.644;2023-02-19T06:22:13;1.90;;;0.73;;
64851;SDS011;56050;55.558;-4.644;2023-02-19T06:24:39;3.40;;;0.88;;
64851;SDS011;56050;55.558;-4.644;2023-02-19T06:27:05;3.67;;;1.23;;
64851;SDS011;56050;55.558;-4.644;2023-02-19T06:29:32;2.47;;;0.98;;
64851;SDS011;56050;55.558;-4.644;2023-02-19T06:31:58;2.95;;;1.85;;
64851;SDS011;56050;55.558;-4.644;2023-02-19T06:34:23;4.97;;;1.48;;
64851;SDS011;56050;55.558;-4.644;2023-02-19T06:36:49;4.68;;;0.77;;
64851;SDS011;56050;55.558;-4.644;2023-02-19T06:39:15;2.28;;;1.15;;
64851;SDS011;56050;55.558;-4.644;2023-02-19T06:41:40;2.30;;;0.57;;
64851;SDS011;56050;55.558;-4.644;2023-02-19T06:44:06;3.63;;;0.88;;
64851;SDS011;56050;55.558;-4.644;2023-02-19T06:46:31;3.50;;;1.30;;
64851;SDS011;56050;55.558;-4.644;2023-02-19T06:48:57;2.45;;;1.05;;
64851;SDS011;56050;55.558;-4.644;2023-02-19T06:51:22;3.45;;;1.10;;
64851;SDS011;56050;55.558;-4.644;2023-02-19T06:53:51;4.22;;;1.35;;
64851;SDS011;56050;55.558;-4.644;2023-02-19T06:58:55;2.92;;;1.40;;
64851;SDS011;56050;55.558;-4.644;2023-02-19T07:01:23;1.83;;;0.77;;
64851;SDS011;56050;55.558;-4.644;2023-02-19T07:03:49;2.95;;;1.88;;
64851;SDS011;56050;55.558;-4.644;2023-02-19T07:06:16;1.88;;;0.65;;
64851;SDS011;56050;55.558;-4.644;2023-02-19T07:08:42;1.70;;;1.33;;
64851;SDS011;56050;55.558;-4.644;2023-02-19T07:11:08;2.78;;;0.60;;
64851;SDS011;56050;55.558;-4.644;2023-02-19T07:13:34;3.10;;;0.90;;
64851;SDS011;56050;55.558;-4.644;2023-02-19T07:16:00;2.03;;;1.02;;
64851;SDS011;56050;55.558;-4.644;2023-02-19T07:18:28;7.55;;;0.95;;
64851;SDS011;56050;55.558;-4.644;2023-02-19T07:20:54;4.60;;;0.77;;
64851;SDS011;56050;55.558;-4.644;2023-02-19T07:23:20;2.85;;;1.20;;
64851;SDS011;56050;55.558;-4.644;2023-02-19T07:25:45;5.63;;;1.23;;
64851;SDS011;56050;55.558;-4.644;2023-02-19T07:28:11;3.78;;;1.42;;
64851;SDS011;56050;55.558;-4.644;2023-02-19T07:30:36;4.35;;;1.02;;
64851;SDS011;56050;55.558;-4.644;2023-02-19T07:33:01;2.65;;;0.88;;
64851;SDS011;56050;55.558;-4.644;2023-02-19T07:35:27;3.15;;;0.88;;
64851;SDS011;56050;55.558;-4.644;2023-02-19T07:37:53;2.58;;;1.00;;
64851;SDS011;56050;55.558;-4.644;2023-02-19T07:40:18;2.90;;;0.95;;
64851;SDS011;56050;55.558;-4.644;2023-02-19T07:42:44;6.07;;;0.60;;
64851;SDS011;56050;55.558;-4.644;2023-02-19T07:45:09;5.63;;;1.08;;
64851;SDS011;56050;55.558;-4.644;2023-02-19T07:47:34;3.25;;;0.77;;
64851;SDS011;56050;55.558;-4.644;2023-02-19T07:50:00;3.25;;;1.05;;
64851;SDS011;56050;55.558;-4.644;2023-02-19T07:52:25;2.50;;;0.88;;
64851;SDS011;56050;55.558;-4.644;2023-02-19T07:54:52;5.75;;;1.33;;
64851;SDS011;56050;55.558;-4.644;2023-02-19T07:57:17;6.95;;;1.08;;
64851;SDS011;56050;55.558;-4.644;2023-02-19T07:59:43;3.10;;;0.85;;
64851;SDS011;56050;55.558;-4.644;2023-02-19T08:02:15;2.95;;;0.60;;
64851;SDS011;56050;55.558;-4.644;2023-02-19T08:05:01;1.65;;;0.85;;
64851;SDS011;56050;55.558;-4.644;2023-02-19T08:07:33;4.95;;;1.88;;
64851;SDS011;56050;55.558;-4.644;2023-02-19T08:10:00;2.10;;;0.75;;
64851;SDS011;56050;55.558;-4.644;2023-02-19T08:12:45;1.42;;;1.08;;
64851;SDS011;56050;55.558;-4.644;2023-02-19T08:15:36;6.28;;;0.90;;
64851;SDS011;56050;55.558;-4.644;2023-02-19T08:18:02;2.13;;;0.93;;
64851;SDS011;56050;55.558;-4.644;2023-02-19T08:20:27;4.22;;;1.05;;
64851;SDS011;56050;55.558;-4.644;2023-02-19T08:22:53;7.20;;;1.02;;
64851;SDS011;56050;55.558;-4.644;2023-02-19T08:25:18;4.57;;;2.78;;
64851;SDS011;56050;55.558;-4.644;2023-02-19T08:27:44;3.42;;;0.98;;
64851;SDS011;56050;55.558;-4.644;2023-02-19T08:30:10;4.25;;;1.30;;
64851;SDS011;56050;55.558;-4.644;2023-02-19T08:32:35;4.28;;;1.15;;
64851;SDS011;56050;55.558;-4.644;2023-02-19T08:35:01;8.63;;;1.95;;
64851;SDS011;56050;55.558;-4.644;2023-02-19T08:37:26;7.18;;;2.35;;
64851;SDS011;56050;55.558;-4.644;2023-02-19T08:39:52;4.15;;;1.92;;
64851;SDS011;56050;55.558;-4.644;2023-02-19T08:42:17;6.53;;;2.00;;
64851;SDS011;56050;55.558;-4.644;2023-02-19T08:44:42;9.43;;;2.13;;
64851;SDS011;56050;55.558;-4.644;2023-02-19T08:47:08;6.82;;;2.00;;
64851;SDS011;56050;55.558;-4.644;2023-02-19T08:49:33;7.97;;;1.88;;
64851;SDS011;56050;55.558;-4.644;2023-02-19T08:51:59;5.07;;;1.88;;
64851;SDS011;56050;55.558;-4.644;2023-02-19T08:54:24;6.15;;;1.35;;
64851;SDS011;56050;55.558;-4.644;2023-02-19T08:56:50;10.45;;;1.55;;
64851;SDS011;56050;55.558;-4.644;2023-02-19T08:59:15;7.85;;;2.30;;
64851;SDS011;56050;55.558;-4.644;2023-02-19T09:01:41;8.63;;;2.05;;
64851;SDS011;56050;55.558;-4.644;2023-02-19T09:04:07;10.68;;;2.38;;
64851;SDS011;56050;55.558;-4.644;2023-02-19T09:06:36;8.10;;;3.13;;
64851;SDS011;56050;55.558;-4.644;2023-02-19T09:09:02;12.90;;;2.72;;
64851;SDS011;56050;55.558;-4.644;2023-02-19T09:11:27;10.65;;;2.25;;
64851;SDS011;56050;55.558;-4.644;2023-02-19T09:13:54;11.75;;;2.85;;
64851;SDS011;56050;55.558;-4.644;2023-02-19T09:16:20;8.75;;;2.53;;
64851;SDS011;56050;55.558;-4.644;2023-02-19T09:18:46;9.35;;;2.80;;
64851;SDS011;56050;55.558;-4.644;2023-02-19T09:21:11;8.77;;;1.65;;
64851;SDS011;56050;55.558;-4.644;2023-02-19T09:23:37;9.73;;;2.92;;
64851;SDS011;56050;55.558;-4.644;2023-02-19T09:26:03;9.73;;;2.60;;
64851;SDS011;56050;55.558;-4.644;2023-02-19T09:28:31;9.52;;;2.42;;
64851;SDS011;56050;55.558;-4.644;2023-02-19T09:31:02;9.93;;;1.60;;
64851;SDS011;56050;55.558;-4.644;2023-02-19T09:33:28;5.13;;;1.50;;
64851;SDS011;56050;55.558;-4.644;2023-02-19T09:35:57;4.85;;;2.17;;
64851;SDS011;56050;55.558;-4.644;2023-02-19T09:38:23;5.88;;;1.15;;
64851;SDS011;56050;55.558;-4.644;2023-02-19T09:40:48;3.78;;;1.48;;
64851;SDS011;56050;55.558;-4.644;2023-02-19T09:43:16;7.25;;;1.92;;
64851;SDS011;56050;55.558;-4.644;2023-02-19T09:45:44;7.03;;;1.48;;
64851;SDS011;56050;55.558;-4.644;2023-02-19T09:48:09;5.63;;;1.20;;
64851;SDS011;56050;55.558;-4.644;2023-02-19T09:50:38;3.42;;;1.15;;
64851;SDS011;56050;55.558;-4.644;2023-02-19T09:53:17;5.25;;;1.35;;
64851;SDS011;56050;55.558;-4.644;2023-02-19T09:55:53;10.90;;;1.45;;
64851;SDS011;56050;55.558;-4.644;2023-02-19T09:58:32;8.02;;;0.93;;
64851;SDS011;56050;55.558;-4.644;2023-02-19T10:01:00;11.45;;;1.55;;
64851;SDS011;56050;55.558;-4.644;2023-02-19T10:03:31;3.17;;;1.25;;
64851;SDS011;56050;55.558;-4.644;2023-02-19T10:06:00;7.00;;;1.17;;
64851;SDS011;56050;55.558;-4.644;2023-02-19T10:08:35;6.72;;;1.77;;
64851;SDS011;56050;55.558;-4.644;2023-02-19T10:11:02;4.20;;;1.20;;
64851;SDS011;56050;55.558;-4.644;2023-02-19T10:16:00;4.85;;;0.77;;
64851;SDS011;56050;55.558;-4.644;2023-02-19T10:18:28;3.20;;;1.30;;
64851;SDS011;56050;55.558;-4.644;2023-02-19T10:21:00;3.22;;;0.65;;
64851;SDS011;56050;55.558;-4.644;2023-02-19T10:23:25;4.95;;;1.60;;
64851;SDS011;56050;55.558;-4.644;2023-02-19T10:25:52;5.70;;;1.33;;
64851;SDS011;56050;55.558;-4.644;2023-02-19T10:28:22;3.38;;;1.15;;
64851;SDS011;56050;55.558;-4.644;2023-02-19T10:30:52;2.38;;;0.75;;
64851;SDS011;56050;55.558;-4.644;2023-02-19T10:33:20;4.07;;;1.13;;
64851;SDS011;56050;55.558;-4.644;2023-02-19T10:38:32;8.25;;;3.08;;
64851;SDS011;56050;55.558;-4.644;2023-02-19T10:41:04;6.25;;;1.10;;
64851;SDS011;56050;55.558;-4.644;2023-02-19T10:43:36;4.45;;;1.60;;
64851;SDS011;56050;55.558;-4.644;2023-02-19T10:46:07;6.75;;;1.23;;
64851;SDS011;56050;55.558;-4.644;2023-02-19T10:48:45;2.58;;;0.85;;
64851;SDS011;56050;55.558;-4.644;2023-02-19T10:51:16;8.00;;;1.10;;
64851;SDS011;56050;55.558;-4.644;2023-02-19T10:53:49;2.72;;;0.98;;
64851;SDS011;56050;55.558;-4.644;2023-02-19T10:56:27;5.70;;;1.15;;
64851;SDS011;56050;55.558;-4.644;2023-02-19T11:01:54;6.22;;;1.23;;
64851;SDS011;56050;55.558;-4.644;2023-02-19T11:04:21;6.57;;;1.02;;
64851;SDS011;56050;55.558;-4.644;2023-02-19T11:06:47;6.93;;;1.20;;
64851;SDS011;56050;55.558;-4.644;2023-02-19T11:09:33;3.67;;;1.55;;
64851;SDS011;56050;55.558;-4.644;2023-02-19T11:12:03;6.80;;;1.00;;
64851;SDS011;56050;55.558;-4.644;2023-02-19T11:14:29;7.88;;;0.68;;
64851;SDS011;56050;55.558;-4.644;2023-02-19T11:16:58;4.18;;;1.92;;
64851;SDS011;56050;55.558;-4.644;2023-02-19T11:19:26;4.13;;;1.00;;
64851;SDS011;56050;55.558;-4.644;2023-02-19T11:21:55;6.90;;;1.08;;
64851;SDS011;56050;55.558;-4.644;2023-02-19T11:24:27;4.07;;;0.88;;
64851;SDS011;56050;55.558;-4.644;2023-02-19T11:26:58;2.67;;;0.93;;
64851;SDS011;56050;55.558;-4.644;2023-02-19T11:29:27;1.42;;;0.50;;
64851;SDS011;56050;55.558;-4.644;2023-02-19T11:31:58;8.23;;;1.33;;
64851;SDS011;56050;55.558;-4.644;2023-02-19T11:34:51;7.03;;;0.98;;
64851;SDS011;56050;55.558;-4.644;2023-02-19T11:37:20;3.72;;;0.55;;
64851;SDS011;56050;55.558;-4.644;2023-02-19T11:39:49;3.70;;;0.88;;
64851;SDS011;56050;55.558;-4.644;2023-02-19T11:42:21;3.63;;;0.85;;
64851;SDS011;56050;55.558;-4.644;2023-02-19T11:47:41;13.20;;;1.23;;
64851;SDS011;56050;55.558;-4.644;2023-02-19T11:55:47;5.05;;;1.35;;
64851;SDS011;56050;55.558;-4.644;2023-02-19T12:04:07;3.97;;;1.58;;
64851;SDS011;56050;55.558;-4.644;2023-02-19T12:22:32;13.05;;;1.67;;
64851;SDS011;56050;55.558;-4.644;2023-02-19T12:28:00;7.53;;;1.50;;
64851;SDS011;56050;55.558;-4.644;2023-02-19T12:41:43;3.17;;;0.80;;
64851;SDS011;56050;55.558;-4.644;2023-02-19T12:47:05;3.63;;;1.35;;
64851;SDS011;56050;55.558;-4.644;2023-02-19T12:49:40;3.30;;;1.27;;
64851;SDS011;56050;55.558;-4.644;2023-02-19T12:52:21;2.55;;;1.00;;
64851;SDS011;56050;55.558;-4.644;2023-02-19T12:54:51;4.70;;;1.00;;
64851;SDS011;56050;55.558;-4.644;2023-02-19T13:00:20;5.53;;;1.13;;
64851;SDS011;56050;55.558;-4.644;2023-02-19T13:11:18;3.85;;;1.35;;
64851;SDS011;56050;55.558;-4.644;2023-02-19T13:14:06;2.65;;;1.02;;
64851;SDS011;56050;55.558;-4.644;2023-02-19T13:16:38;2.65;;;0.80;;
64851;SDS011;56050;55.558;-4.644;2023-02-19T13:19:09;5.40;;;1.67;;
64851;SDS011;56050;55.558;-4.644;2023-02-19T13:21:39;5.05;;;0.90;;
64851;SDS011;56050;55.558;-4.644;2023-02-19T13:24:25;5.00;;;1.05;;
64851;SDS011;56050;55.558;-4.644;2023-02-19T13:30:06;6.03;;;1.30;;
64851;SDS011;56050;55.558;-4.644;2023-02-19T13:37:40;6.45;;;1.25;;
64851;SDS011;56050;55.558;-4.644;2023-02-19T13:43:04;4.55;;;1.08;;
64851;SDS011;56050;55.558;-4.644;2023-02-19T13:48:13;5.38;;;1.42;;
64851;SDS011;56050;55.558;-4.644;2023-02-19T13:50:38;5.07;;;1.20;;
64851;SDS011;56050;55.558;-4.644;2023-02-19T14:04:19;5.00;;;1.65;;
64851;SDS011;56050;55.558;-4.644;2023-02-19T14:12:03;5.57;;;1.23;;
64851;SDS011;56050;55.558;-4.644;2023-02-19T14:14:52;6.53;;;1.38;;
64851;SDS011;56050;55.558;-4.644;2023-02-19T14:33:35;6.68;;;0.98;;
64851;SDS011;56050;55.558;-4.644;2023-02-19T14:38:51;4.47;;;0.82;;
64851;SDS011;56050;55.558;-4.644;2023-02-19T14:41:20;6.00;;;0.75;;
64851;SDS011;56050;55.558;-4.644;2023-02-19T14:43:47;8.02;;;1.25;;
64851;SDS011;56050;55.558;-4.644;2023-02-19T14:46:31;7.13;;;0.90;;
64851;SDS011;56050;55.558;-4.644;2023-02-19T14:49:06;9.05;;;1.13;;
64851;SDS011;56050;55.558;-4.644;2023-02-19T14:51:39;5.95;;;1.45;;
64851;SDS011;56050;55.558;-4.644;2023-02-19T14:56:43;3.20;;;1.63;;
64851;SDS011;56050;55.558;-4.644;2023-02-19T15:01:38;5.95;;;1.75;;
64851;SDS011;56050;55.558;-4.644;2023-02-19T15:04:04;7.00;;;1.73;;
64851;SDS011;56050;55.558;-4.644;2023-02-19T15:06:30;3.53;;;1.40;;
64851;SDS011;56050;55.558;-4.644;2023-02-19T15:09:00;5.38;;;1.40;;
64851;SDS011;56050;55.558;-4.644;2023-02-19T15:11:29;6.10;;;1.58;;
64851;SDS011;56050;55.558;-4.644;2023-02-19T15:13:57;4.88;;;1.17;;
64851;SDS011;56050;55.558;-4.644;2023-02-19T15:16:25;5.45;;;1.30;;
64851;SDS011;56050;55.558;-4.644;2023-02-19T15:18:53;5.75;;;1.35;;
64851;SDS011;56050;55.558;-4.644;2023-02-19T15:21:24;8.88;;;1.23;;
64851;SDS011;56050;55.558;-4.644;2023-02-19T15:23:57;2.38;;;0.73;;
64851;SDS011;56050;55.558;-4.644;2023-02-19T15:26:39;4.43;;;1.77;;
64851;SDS011;56050;55.558;-4.644;2023-02-19T15:29:11;1.23;;;0.60;;
64851;SDS011;56050;55.558;-4.644;2023-02-19T15:31:45;6.47;;;1.25;;
64851;SDS011;56050;55.558;-4.644;2023-02-19T15:34:30;4.32;;;1.05;;
64851;SDS011;56050;55.558;-4.644;2023-02-19T15:37:00;8.30;;;1.17;;
64851;SDS011;56050;55.558;-4.644;2023-02-19T15:39:38;3.22;;;0.88;;
64851;SDS011;56050;55.558;-4.644;2023-02-19T15:42:07;4.40;;;0.98;;
64851;SDS011;56050;55.558;-4.644;2023-02-19T15:47:21;3.50;;;1.10;;
64851;SDS011;56050;55.558;-4.644;2023-02-19T15:49:55;2.28;;;1.30;;
64851;SDS011;56050;55.558;-4.644;2023-02-19T16:03:21;7.10;;;0.68;;
64851;SDS011;56050;55.558;-4.644;2023-02-19T16:06:12;5.13;;;1.55;;
64851;SDS011;56050;55.558;-4.644;2023-02-19T16:08:39;4.90;;;2.05;;
64851;SDS011;56050;55.558;-4.644;2023-02-19T16:16:58;4.72;;;0.88;;
64851;SDS011;56050;55.558;-4.644;2023-02-19T16:19:28;4.65;;;1.25;;
64851;SDS011;56050;55.558;-4.644;2023-02-19T16:21:57;3.88;;;0.82;;
64851;SDS011;56050;55.558;-4.644;2023-02-19T16:24:33;3.85;;;0.75;;
64851;SDS011;56050;55.558;-4.644;2023-02-19T16:27:05;11.48;;;1.50;;
64851;SDS011;56050;55.558;-4.644;2023-02-19T16:29:31;4.72;;;1.50;;
64851;SDS011;56050;55.558;-4.644;2023-02-19T16:32:04;4.80;;;2.03;;
64851;SDS011;56050;55.558;-4.644;2023-02-19T16:34:39;5.97;;;1.38;;
64851;SDS011;56050;55.558;-4.644;2023-02-19T16:37:34;3.97;;;0.95;;
64851;SDS011;56050;55.558;-4.644;2023-02-19T16:42:33;4.32;;;1.73;;
64851;SDS011;56050;55.558;-4.644;2023-02-19T16:45:16;3.58;;;1.42;;
64851;SDS011;56050;55.558;-4.644;2023-02-19T16:47:42;3.83;;;0.73;;
64851;SDS011;56050;55.558;-4.644;2023-02-19T16:50:24;4.70;;;0.73;;
64851;SDS011;56050;55.558;-4.644;2023-02-19T16:52:53;5.10;;;0.80;;
64851;SDS011;56050;55.558;-4.644;2023-02-19T16:55:24;2.15;;;1.13;;
64851;SDS011;56050;55.558;-4.644;2023-02-19T16:57:50;6.43;;;0.65;;
64851;SDS011;56050;55.558;-4.644;2023-02-19T17:00:17;2.88;;;0.98;;
64851;SDS011;56050;55.558;-4.644;2023-02-19T17:02:44;5.13;;;0.98;;
64851;SDS011;56050;55.558;-4.644;2023-02-19T17:05:15;2.60;;;1.08;;
64851;SDS011;56050;55.558;-4.644;2023-02-19T17:07:41;4.47;;;0.80;;
64851;SDS011;56050;55.558;-4.644;2023-02-19T17:10:08;2.17;;;1.02;;
64851;SDS011;56050;55.558;-4.644;2023-02-19T17:12:37;3.42;;;0.98;;
64851;SDS011;56050;55.558;-4.644;2023-02-19T17:15:02;5.43;;;0.98;;
64851;SDS011;56050;55.558;-4.644;2023-02-19T17:17:28;4.47;;;1.13;;
64851;SDS011;56050;55.558;-4.644;2023-02-19T17:19:53;4.20;;;1.15;;
64851;SDS011;56050;55.558;-4.644;2023-02-19T17:22:20;6.47;;;1.27;;
64851;SDS011;56050;55.558;-4.644;2023-02-19T17:24:45;4.57;;;0.73;;
64851;SDS011;56050;55.558;-4.644;2023-02-19T17:27:12;6.20;;;1.85;;
64851;SDS011;56050;55.558;-4.644;2023-02-19T17:29:38;4.53;;;1.08;;
64851;SDS011;56050;55.558;-4.644;2023-02-19T17:32:05;3.92;;;1.10;;
64851;SDS011;56050;55.558;-4.644;2023-02-19T17:34:31;3.05;;;0.80;;
64851;SDS011;56050;55.558;-4.644;2023-02-19T17:36:57;3.10;;;0.85;;
64851;SDS011;56050;55.558;-4.644;2023-02-19T17:39:23;8.32;;;1.50;;
64851;SDS011;56050;55.558;-4.644;2023-02-19T17:41:57;6.70;;;1.33;;
64851;SDS011;56050;55.558;-4.644;2023-02-19T17:44:22;3.92;;;1.45;;
64851;SDS011;56050;55.558;-4.644;2023-02-19T17:46:48;5.35;;;0.95;;
64851;SDS011;56050;55.558;-4.644;2023-02-19T17:49:13;7.25;;;1.35;;
64851;SDS011;56050;55.558;-4.644;2023-02-19T17:51:39;9.63;;;1.08;;
64851;SDS011;56050;55.558;-4.644;2023-02-19T17:54:04;5.22;;;1.40;;
64851;SDS011;56050;55.558;-4.644;2023-02-19T17:56:30;6.05;;;1.38;;
64851;SDS011;56050;55.558;-4.644;2023-02-19T17:58:57;4.65;;;0.98;;
64851;SDS011;56050;55.558;-4.644;2023-02-19T18:01:25;7.75;;;1.40;;
64851;SDS011;56050;55.558;-4.644;2023-02-19T18:03:51;5.53;;;0.90;;
64851;SDS011;56050;55.558;-4.644;2023-02-19T18:06:16;10.80;;;2.28;;
64851;SDS011;56050;55.558;-4.644;2023-02-19T18:08:46;7.85;;;1.67;;
64851;SDS011;56050;55.558;-4.644;2023-02-19T18:11:16;6.18;;;1.67;;
64851;SDS011;56050;55.558;-4.644;2023-02-19T18:13:42;9.98;;;1.55;;
64851;SDS011;56050;55.558;-4.644;2023-02-19T18:16:08;14.48;;;1.75;;
64851;SDS011;56050;55.558;-4.644;2023-02-19T18:18:35;9.35;;;1.83;;
64851;SDS011;56050;55.558;-4.644;2023-02-19T18:21:02;4.95;;;1.70;;
64851;SDS011;56050;55.558;-4.644;2023-02-19T18:23:31;6.30;;;0.88;;
64851;SDS011;56050;55.558;-4.644;2023-02-19T18:25:57;11.05;;;1.95;;